Terminal Aerodrome Forecast
Issued by NWS

Home | Current Version | Previous Version | Text Only | Print | Product List | Glossary Off
Versions: 1 2 3 4 5 6 7 8 9 10 11 12 13 14 15 16 17 18 19 20 21 22 23 24 25 26

000
FTUS43 KLOT 170845 AAA
TAFGYY
TAF AMD
KGYY 170845Z 1709/1806 27012G20KT P6SM SCT035
     FM171100 28014G20KT P6SM BKN030
     FM171500 30012G18KT P6SM BKN035
     FM172200 04008KT P6SM SCT040=

USA.gov is the U.S. government's official web portal to all federal, state and local government web resources and services.